Enter the Airport ICAO Code

Search by Airport or City

Current Weather

LETO | Madrid–Torrejón Airport

Madrid, Community of Madrid, Spain

Last Update 17 Minutes Ago

Partly Cloudy Sky

Temperature of 08 ºC

Light to Moderate Winds from South

Temperature

08 ºC

Dew Point Temperature

04 ºC

Relative Humidity

75.89 %

Wind Direction

South (170º, Ranging from 150º to 210º)

Wind Velocity

15 km/h (08 kt)

Gusts

None

Visibility

Greater than 10 Kilometers

Sea Level Pressure

1006 hPa (Hectopascals)

Layers of Clouds

30% to 60% of Sky Covered from 1372 mts (4500 ft) Above Ground Level.

METAR LETO 160700Z 17008KT 150V210 9999 SCT045 08/04 Q1006 NOSIG

Weather Forecast

LETO | Madrid–Torrejón Airport

Madrid, Community of Madrid, Spain

Forecast valid for the next 23 Hours

From now on it is expected:

Mostly Cloudy Sky

Moderate Winds from South

From now on it is expected 1 hour with intermittent periods of:

Light to Moderate Winds from Variable Directions

In 7 hours it is expected the begining of 5 hours with intermittent periods of:

Moderate Winds from South with Gusts

In 14 hours it is expected the begining of 9 hours with intermittent periods of:

Rain

Maximum Temperature

15 ºC in 8 Hours

Minimum Temperature

06 ºC in -1 Hours

TAF LETO 160500Z 1606/1706 16010KT 9999 BKN035 TX15/1615Z TN06/1606Z TEMPO 1606/1608 VRB05KT PROB30 TEMPO 1614/1619 16015G25KT PROB40 TEMPO 1621/1706 3000 RA